Time;durP1;ratioP1;P1;durP2;ratioP2;P2;SDS_P1;SDS_P2;PMS_P1;PMS_P2;Temp;Humidity;BMP_temperature;BMP_pressure;BME280_temperature;BME280_humidity;BME280_pressure;Samples;Min_cycle;Max_cycle;Signal;HPM_P1;HPM_P2
2021/12/24 00:00:55;;;;;;;61.65;28.23;;;;;;;;;;5053766;28;20025;-37
2021/12/24 00:03:21;;;;;;;73.72;34.75;;;;;;;;;;5035131;28;20127;-37
2021/12/24 00:05:46;;;;;;;69.22;34.25;;;;;;;;;;5053815;28;20430;-36
2021/12/24 00:08:12;;;;;;;68.78;31.35;;;;;;;;;;5053886;28;20021;-37
2021/12/24 00:10:39;;;;;;;60.25;29.45;;;;;;;;;;5053801;28;20028;-37
2021/12/24 00:13:09;;;;;;;68.55;33.00;;;;;;;;;;5053580;28;20338;-37
2021/12/24 00:18:17;;;;;;;75.35;34.70;;;;;;;;;;5054181;28;20029;-36
2021/12/24 00:37:08;;;;;;;96.88;45.33;;;;;;;;;;5053692;28;20079;-36
2021/12/24 00:39:40;;;;;;;61.92;28.08;;;;;;;;;;5053584;28;20597;-36
2021/12/24 00:42:06;;;;;;;52.90;26.35;;;;;;;;;;5053558;28;20033;-36
2021/12/24 00:44:31;;;;;;;57.40;30.45;;;;;;;;;;5053406;28;20039;-36
2021/12/24 00:46:57;;;;;;;51.00;26.42;;;;;;;;;;5053388;28;20029;-36
2021/12/24 00:49:22;;;;;;;73.32;34.72;;;;;;;;;;5053452;28;20024;-37
2021/12/24 00:56:57;;;;;;;66.30;31.02;;;;;;;;;;5053305;28;20086;-35
2021/12/24 00:59:23;;;;;;;69.75;33.40;;;;;;;;;;5053220;28;20025;-36
2021/12/24 01:01:49;;;;;;;55.13;26.15;;;;;;;;;;5052929;28;20427;-36
2021/12/24 01:04:14;;;;;;;51.13;28.15;;;;;;;;;;5052835;28;20493;-35
2021/12/24 01:06:40;;;;;;;52.58;25.65;;;;;;;;;;5052763;28;20021;-36
2021/12/24 01:09:05;;;;;;;67.65;32.58;;;;;;;;;;5052674;28;20035;-37
2021/12/24 01:11:31;;;;;;;83.57;36.28;;;;;;;;;;5053033;28;20040;-37
2021/12/24 01:14:00;;;;;;;66.07;33.50;;;;;;;;;;5052654;28;20059;-37
2021/12/24 01:16:42;;;;;;;69.00;32.92;;;;;;;;;;5052481;28;20041;-36
2021/12/24 01:19:17;;;;;;;70.85;33.45;;;;;;;;;;5052826;28;20028;-37
2021/12/24 01:24:13;;;;;;;76.00;33.95;;;;;;;;;;5052811;28;20094;-36
2021/12/24 01:26:53;;;;;;;75.55;34.85;;;;;;;;;;5052360;28;20029;-36
2021/12/24 01:40:20;;;;;;;63.90;31.80;;;;;;;;;;5052530;28;20040;-36
2021/12/24 01:42:48;;;;;;;63.20;30.80;;;;;;;;;;5052158;28;20036;-36
2021/12/24 01:45:28;;;;;;;74.43;34.97;;;;;;;;;;5052363;28;20473;-36
2021/12/24 01:47:59;;;;;;;69.15;32.88;;;;;;;;;;5052188;28;20151;-36
2021/12/24 01:50:28;;;;;;;84.07;36.97;;;;;;;;;;5052284;28;20104;-37
2021/12/24 01:52:55;;;;;;;50.63;27.38;;;;;;;;;;5052049;28;20029;-36
2021/12/24 01:55:22;;;;;;;49.88;25.00;;;;;;;;;;5052099;28;20098;-37
2021/12/24 01:57:49;;;;;;;75.35;33.90;;;;;;;;;;5051841;28;20079;-36
2021/12/24 02:00:18;;;;;;;88.40;41.53;;;;;;;;;;5051888;28;20032;-36
2021/12/24 02:02:44;;;;;;;79.68;38.95;;;;;;;;;;5052250;28;20021;-37
2021/12/24 02:05:10;;;;;;;83.88;39.00;;;;;;;;;;5052188;28;20029;-35
2021/12/24 02:07:36;;;;;;;79.78;39.00;;;;;;;;;;5052066;28;20025;-37
2021/12/24 02:10:04;;;;;;;70.55;34.88;;;;;;;;;;5051952;28;20027;-37
2021/12/24 02:12:32;;;;;;;60.30;31.85;;;;;;;;;;5051875;28;20091;-36
2021/12/24 02:14:59;;;;;;;74.20;37.03;;;;;;;;;;5051704;28;20041;-36
2021/12/24 02:17:44;;;;;;;57.75;29.60;;;;;;;;;;5052152;28;20052;-37
2021/12/24 02:28:38;;;;;;;55.78;27.63;;;;;;;;;;5055333;28;20040;-36
2021/12/24 02:31:09;;;;;;;59.28;28.38;;;;;;;;;;5037768;28;20096;-36
2021/12/24 02:33:35;;;;;;;53.47;27.50;;;;;;;;;;5055378;28;20057;-36
2021/12/24 02:36:00;;;;;;;67.00;31.27;;;;;;;;;;5055545;28;20053;-37
2021/12/24 02:38:26;;;;;;;58.58;30.58;;;;;;;;;;5055439;28;20484;-36
2021/12/24 02:40:53;;;;;;;43.88;22.73;;;;;;;;;;5054946;28;20029;-36
2021/12/24 02:43:21;;;;;;;58.70;30.63;;;;;;;;;;5054955;28;20056;-36
2021/12/24 02:45:49;;;;;;;52.65;24.45;;;;;;;;;;5055035;28;20527;-36
2021/12/24 02:53:58;;;;;;;39.78;21.55;;;;;;;;;;5055222;28;20036;-36
2021/12/24 02:56:30;;;;;;;54.78;27.02;;;;;;;;;;5054715;28;20116;-36
2021/12/24 02:58:58;;;;;;;49.30;24.23;;;;;;;;;;5055018;28;20025;-36
2021/12/24 03:01:28;;;;;;;47.40;25.10;;;;;;;;;;5037021;28;20021;-36
2021/12/24 03:03:54;;;;;;;33.87;19.40;;;;;;;;;;5054618;28;20055;-36
2021/12/24 03:06:22;;;;;;;46.45;25.38;;;;;;;;;;5036813;28;20036;-36
2021/12/24 03:08:48;;;;;;;45.47;23.80;;;;;;;;;;5054503;28;20025;-36
2021/12/24 03:11:14;;;;;;;48.28;24.70;;;;;;;;;;5054313;28;20070;-36
2021/12/24 03:13:40;;;;;;;53.40;26.30;;;;;;;;;;5054234;28;20041;-36
2021/12/24 03:16:07;;;;;;;48.28;24.20;;;;;;;;;;5054647;28;20103;-36
2021/12/24 03:18:35;;;;;;;49.50;25.17;;;;;;;;;;5054576;28;20437;-36
2021/12/24 03:21:15;;;;;;;47.92;24.77;;;;;;;;;;5054408;28;20036;-36
2021/12/24 03:24:33;;;;;;;46.33;24.00;;;;;;;;;;5054284;28;20100;-36
2021/12/24 03:26:29;;;;;;;49.33;25.23;;;;;;;;;;5054852;28;20032;-37
2021/12/24 03:28:55;;;;;;;45.45;23.33;;;;;;;;;;5055831;28;20477;-37
2021/12/24 03:31:21;;;;;;;50.63;23.95;;;;;;;;;;5054731;28;20025;-36
2021/12/24 03:33:48;;;;;;;34.53;20.70;;;;;;;;;;5036187;28;20026;-36
2021/12/24 03:36:14;;;;;;;44.25;21.70;;;;;;;;;;5054931;28;20031;-36
2021/12/24 03:38:40;;;;;;;52.08;26.20;;;;;;;;;;5054184;28;20033;-36
2021/12/24 03:41:06;;;;;;;41.88;22.90;;;;;;;;;;5054625;28;20033;-36
2021/12/24 03:43:32;;;;;;;44.67;23.05;;;;;;;;;;5054170;28;20523;-36
2021/12/24 03:46:06;;;;;;;44.58;23.27;;;;;;;;;;5054150;28;20059;-36
2021/12/24 03:56:27;;;;;;;45.83;23.38;;;;;;;;;;5053993;28;20492;-37
2021/12/24 03:58:52;;;;;;;32.08;16.70;;;;;;;;;;5053640;28;20108;-37
2021/12/24 04:01:18;;;;;;;44.92;22.90;;;;;;;;;;5053885;28;20179;-36
2021/12/24 04:03:43;;;;;;;43.42;22.38;;;;;;;;;;5053838;28;20033;-36
2021/12/24 04:06:10;;;;;;;36.47;20.58;;;;;;;;;;5053433;28;20033;-36
2021/12/24 04:08:36;;;;;;;46.00;25.08;;;;;;;;;;5053356;28;20076;-37
2021/12/24 04:11:02;;;;;;;45.10;23.02;;;;;;;;;;5053705;28;20021;-37
2021/12/24 04:13:28;;;;;;;36.10;20.08;;;;;;;;;;5035739;28;20502;-36
2021/12/24 04:15:54;;;;;;;40.30;22.63;;;;;;;;;;5053542;28;20112;-36
2021/12/24 04:26:24;;;;;;;34.25;18.10;;;;;;;;;;5053384;28;20124;-36
2021/12/24 04:28:49;;;;;;;42.33;20.42;;;;;;;;;;5052989;28;20108;-36
2021/12/24 04:31:16;;;;;;;33.72;18.85;;;;;;;;;;5053256;28;20049;-36
2021/12/24 04:33:47;;;;;;;36.13;20.58;;;;;;;;;;5052963;28;20469;-36
2021/12/24 04:36:41;;;;;;;29.92;16.48;;;;;;;;;;5052934;28;20029;-36
2021/12/24 05:01:10;;;;;;;29.17;16.08;;;;;;;;;;5052663;28;20507;-36
2021/12/24 05:01:21;;;;;;;23.52;13.20;;;;;;;;;;5052597;28;20040;-36
2021/12/24 05:03:47;;;;;;;29.20;15.35;;;;;;;;;;5052731;28;20025;-36
2021/12/24 05:06:27;;;;;;;28.30;14.65;;;;;;;;;;5052385;28;20112;-35
2021/12/24 05:08:56;;;;;;;26.83;14.63;;;;;;;;;;5052337;28;20370;-35
2021/12/24 05:11:23;;;;;;;32.58;15.85;;;;;;;;;;5052554;28;20029;-35
2021/12/24 05:13:52;;;;;;;21.85;12.82;;;;;;;;;;5052066;28;20489;-35
2021/12/24 05:21:42;;;;;;;26.60;13.90;;;;;;;;;;5052106;28;20040;-36
2021/12/24 05:24:19;;;;;;;24.10;12.60;;;;;;;;;;5052405;28;20032;-35
2021/12/24 05:26:51;;;;;;;28.50;16.30;;;;;;;;;;5052501;28;20493;-35
2021/12/24 05:29:17;;;;;;;27.08;14.20;;;;;;;;;;5053028;28;20032;-36
2021/12/24 05:31:44;;;;;;;25.05;14.18;;;;;;;;;;5053051;28;20599;-35
2021/12/24 05:34:10;;;;;;;25.33;13.73;;;;;;;;;;5052627;28;20029;-36
2021/12/24 05:36:36;;;;;;;25.05;13.43;;;;;;;;;;5052646;28;20461;-36
2021/12/24 05:39:03;;;;;;;26.88;14.00;;;;;;;;;;5052835;28;20029;-35
2021/12/24 05:41:29;;;;;;;27.25;14.23;;;;;;;;;;5052608;28;20037;-36
2021/12/24 05:43:55;;;;;;;24.00;14.10;;;;;;;;;;5052528;28;20029;-36
2021/12/24 05:46:21;;;;;;;23.58;13.05;;;;;;;;;;5052862;28;20029;-37
2021/12/24 05:48:46;;;;;;;21.17;12.52;;;;;;;;;;5052791;28;20538;-36
2021/12/24 05:51:12;;;;;;;21.13;11.88;;;;;;;;;;5052588;28;20036;-36
2021/12/24 05:53:38;;;;;;;22.67;11.93;;;;;;;;;;5052682;28;20052;-36
2021/12/24 05:56:04;;;;;;;24.48;12.25;;;;;;;;;;5052380;28;20063;-36
2021/12/24 05:58:30;;;;;;;19.35;10.88;;;;;;;;;;5052581;28;20040;-36
2021/12/24 06:00:56;;;;;;;15.75;8.80;;;;;;;;;;5052376;28;20499;-36
2021/12/24 06:03:22;;;;;;;15.27;9.35;;;;;;;;;;5055556;28;20070;-36
2021/12/24 06:05:49;;;;;;;17.98;9.45;;;;;;;;;;5056431;28;20027;-36
2021/12/24 06:08:14;;;;;;;13.80;8.73;;;;;;;;;;5056095;28;20029;-36
2021/12/24 06:10:42;;;;;;;15.50;8.27;;;;;;;;;;5056309;28;20029;-36
2021/12/24 06:13:08;;;;;;;14.25;8.93;;;;;;;;;;5055696;28;20029;-36
2021/12/24 06:15:42;;;;;;;14.88;7.65;;;;;;;;;;5055961;28;20033;-36
2021/12/24 06:18:19;;;;;;;12.27;7.88;;;;;;;;;;5056108;28;20048;-37
2021/12/24 06:20:44;;;;;;;15.80;8.50;;;;;;;;;;5055777;28;20033;-36
2021/12/24 06:23:10;;;;;;;13.40;7.65;;;;;;;;;;5055913;28;20056;-36
2021/12/24 06:25:36;;;;;;;8.30;5.68;;;;;;;;;;5055673;28;20074;-36
2021/12/24 06:28:02;;;;;;;15.23;7.90;;;;;;;;;;5055499;28;20465;-36
2021/12/24 06:30:29;;;;;;;16.48;7.22;;;;;;;;;;5055901;28;20078;-36
2021/12/24 06:32:56;;;;;;;11.07;7.28;;;;;;;;;;5055713;28;20044;-36
2021/12/24 06:35:21;;;;;;;11.40;7.40;;;;;;;;;;5055499;28;20025;-36
2021/12/24 06:37:47;;;;;;;14.77;7.28;;;;;;;;;;5055536;28;20158;-36
2021/12/24 06:40:13;;;;;;;13.50;7.25;;;;;;;;;;5055220;28;20029;-36
2021/12/24 06:42:38;;;;;;;13.80;6.95;;;;;;;;;;5055272;28;20131;-36
2021/12/24 06:45:05;;;;;;;11.20;6.78;;;;;;;;;;5055365;28;20028;-36
2021/12/24 06:47:30;;;;;;;10.35;6.57;;;;;;;;;;5055309;28;20082;-36
2021/12/24 06:49:56;;;;;;;9.15;6.57;;;;;;;;;;5055192;28;20029;-36
2021/12/24 06:52:22;;;;;;;10.80;5.07;;;;;;;;;;5055282;28;20075;-36
2021/12/24 06:54:47;;;;;;;11.55;7.03;;;;;;;;;;5055055;28;20025;-36
2021/12/24 06:57:17;;;;;;;9.88;5.90;;;;;;;;;;5055014;28;20021;-36
2021/12/24 06:59:43;;;;;;;8.13;4.67;;;;;;;;;;5055293;28;20024;-36
2021/12/24 07:02:09;;;;;;;10.40;6.30;;;;;;;;;;5054582;28;20278;-36
2021/12/24 07:04:35;;;;;;;10.02;5.25;;;;;;;;;;5055166;28;20036;-36
2021/12/24 07:07:00;;;;;;;9.90;6.05;;;;;;;;;;5054803;28;20389;-36
2021/12/24 07:09:29;;;;;;;13.18;5.43;;;;;;;;;;5054943;28;20033;-36
2021/12/24 07:11:54;;;;;;;7.25;5.03;;;;;;;;;;5054646;28;20033;-35
2021/12/24 07:14:20;;;;;;;11.48;6.45;;;;;;;;;;5054330;28;20045;-35
2021/12/24 07:16:46;;;;;;;9.57;5.78;;;;;;;;;;5054898;28;20025;-36
2021/12/24 07:19:11;;;;;;;8.77;5.72;;;;;;;;;;5054479;28;20029;-36
2021/12/24 07:21:38;;;;;;;8.90;6.55;;;;;;;;;;5054350;28;20032;-36
2021/12/24 07:24:06;;;;;;;8.27;5.07;;;;;;;;;;5054404;28;20060;-36
2021/12/24 07:26:31;;;;;;;10.48;5.80;;;;;;;;;;5054664;28;20467;-36
2021/12/24 07:28:57;;;;;;;9.80;5.82;;;;;;;;;;5054257;28;20065;-36
2021/12/24 07:31:23;;;;;;;8.80;5.78;;;;;;;;;;5054066;28;20086;-36
2021/12/24 07:33:48;;;;;;;11.55;5.97;;;;;;;;;;5054218;28;20073;-36
2021/12/24 07:36:14;;;;;;;10.30;5.40;;;;;;;;;;5054258;28;20025;-36
2021/12/24 07:38:40;;;;;;;14.10;6.15;;;;;;;;;;5054202;28;20460;-36
2021/12/24 07:41:06;;;;;;;8.10;5.25;;;;;;;;;;5053765;28;20431;-36
2021/12/24 07:43:32;;;;;;;8.57;5.88;;;;;;;;;;5053776;28;20086;-37
2021/12/24 07:45:58;;;;;;;9.70;5.90;;;;;;;;;;5054072;28;20098;-37
2021/12/24 07:48:28;;;;;;;9.43;6.00;;;;;;;;;;5054020;28;20021;-37
2021/12/24 07:53:21;;;;;;;12.45;5.50;;;;;;;;;;5053742;28;20124;-37
2021/12/24 07:55:47;;;;;;;8.68;5.90;;;;;;;;;;5053436;28;20445;-36
2021/12/24 07:58:17;;;;;;;9.30;6.60;;;;;;;;;;5053824;28;20021;-37
2021/12/24 08:00:44;;;;;;;7.13;4.57;;;;;;;;;;5053752;28;20105;-36
2021/12/24 08:03:09;;;;;;;8.23;5.18;;;;;;;;;;5053791;28;20376;-37
2021/12/24 08:05:39;;;;;;;8.98;5.85;;;;;;;;;;5053339;28;20021;-37
2021/12/24 08:08:06;;;;;;;6.82;5.50;;;;;;;;;;5053104;28;20039;-37
2021/12/24 08:10:34;;;;;;;6.28;5.00;;;;;;;;;;5053596;28;20033;-36
2021/12/24 08:13:00;;;;;;;9.48;5.57;;;;;;;;;;5053592;28;20029;-36
2021/12/24 08:15:26;;;;;;;7.57;5.32;;;;;;;;;;5052894;28;20431;-36
2021/12/24 08:17:52;;;;;;;8.45;5.30;;;;;;;;;;5053020;28;20108;-36
2021/12/24 08:20:22;;;;;;;6.45;4.90;;;;;;;;;;5053150;28;20060;-36
2021/12/24 08:22:49;;;;;;;6.25;5.10;;;;;;;;;;5052562;28;20017;-38
2021/12/24 08:25:16;;;;;;;8.73;4.93;;;;;;;;;;5050604;28;20619;-37
2021/12/24 08:27:42;;;;;;;8.13;5.15;;;;;;;;;;5051037;28;20025;-38
2021/12/24 08:30:09;;;;;;;8.48;4.75;;;;;;;;;;5052267;28;20096;-36
2021/12/24 08:32:38;;;;;;;6.75;5.00;;;;;;;;;;5051508;28;20049;-36
2021/12/24 08:35:05;;;;;;;6.32;4.53;;;;;;;;;;5051352;28;20064;-36
2021/12/24 08:37:31;;;;;;;6.45;4.30;;;;;;;;;;5051282;28;20021;-36
2021/12/24 08:39:56;;;;;;;6.60;4.60;;;;;;;;;;5050958;28;20094;-37
2021/12/24 08:42:22;;;;;;;5.72;4.20;;;;;;;;;;5051313;28;20033;-36
2021/12/24 08:44:47;;;;;;;6.53;3.97;;;;;;;;;;5052797;28;20025;-35
2021/12/24 08:47:13;;;;;;;6.65;4.30;;;;;;;;;;5053053;28;20486;-36
2021/12/24 08:49:39;;;;;;;6.05;3.90;;;;;;;;;;5035191;28;20025;-35
2021/12/24 08:52:04;;;;;;;6.65;4.05;;;;;;;;;;5052672;28;20112;-35
2021/12/24 08:54:30;;;;;;;9.40;4.30;;;;;;;;;;5052668;28;20047;-36
2021/12/24 08:56:56;;;;;;;5.10;3.88;;;;;;;;;;5052573;28;20021;-35
2021/12/24 08:59:23;;;;;;;9.07;4.28;;;;;;;;;;5052413;28;20040;-36
2021/12/24 09:01:49;;;;;;;5.85;3.90;;;;;;;;;;5052645;28;20037;-35
2021/12/24 09:04:15;;;;;;;6.93;3.90;;;;;;;;;;5052737;28;20115;-36
2021/12/24 09:06:41;;;;;;;7.03;4.18;;;;;;;;;;5052366;28;20068;-36
2021/12/24 09:09:10;;;;;;;6.18;4.30;;;;;;;;;;5052387;28;20588;-36
2021/12/24 09:11:37;;;;;;;9.02;6.13;;;;;;;;;;5034464;28;20064;-37
2021/12/24 09:14:03;;;;;;;34.80;23.25;;;;;;;;;;5052019;28;20075;-38
2021/12/24 09:16:28;;;;;;;7.93;3.88;;;;;;;;;;5052232;28;20033;-36
2021/12/24 09:19:01;;;;;;;6.95;4.28;;;;;;;;;;5051424;28;20194;-37
2021/12/24 09:21:28;;;;;;;8.05;3.60;;;;;;;;;;5051797;28;20021;-35
2021/12/24 09:23:55;;;;;;;5.68;3.85;;;;;;;;;;5050393;28;20435;-37
2021/12/24 09:26:27;;;;;;;3.67;3.35;;;;;;;;;;5052293;28;20057;-37
2021/12/24 09:28:53;;;;;;;6.07;3.50;;;;;;;;;;5052129;28;20024;-37
2021/12/24 09:31:19;;;;;;;5.18;3.28;;;;;;;;;;5034318;28;20384;-36
2021/12/24 09:33:44;;;;;;;6.15;3.70;;;;;;;;;;5052072;28;20116;-36
2021/12/24 09:36:10;;;;;;;4.68;3.60;;;;;;;;;;5052331;28;20047;-37
2021/12/24 09:38:36;;;;;;;6.15;3.92;;;;;;;;;;5055121;28;20021;-37
2021/12/24 09:41:02;;;;;;;7.75;3.38;;;;;;;;;;5055389;28;20485;-36
2021/12/24 09:43:27;;;;;;;10.05;3.17;;;;;;;;;;5056097;28;20017;-36
2021/12/24 09:45:53;;;;;;;5.25;2.92;;;;;;;;;;5056301;28;20029;-37
2021/12/24 09:48:18;;;;;;;4.18;3.10;;;;;;;;;;5056005;28;20075;-37
2021/12/24 09:50:45;;;;;;;6.30;3.20;;;;;;;;;;5055944;28;20040;-36
2021/12/24 09:53:11;;;;;;;5.72;3.63;;;;;;;;;;5055915;28;20021;-36
2021/12/24 09:55:37;;;;;;;4.68;3.50;;;;;;;;;;5056081;28;20028;-37
2021/12/24 09:58:02;;;;;;;5.47;3.35;;;;;;;;;;5056163;28;20026;-36
2021/12/24 10:00:29;;;;;;;4.50;3.33;;;;;;;;;;5055567;28;20163;-36
2021/12/24 10:02:58;;;;;;;10.02;3.60;;;;;;;;;;5053789;28;20029;-38
2021/12/24 10:05:34;;;;;;;9.32;3.33;;;;;;;;;;5055746;28;20025;-37
2021/12/24 10:08:00;;;;;;;4.65;3.38;;;;;;;;;;5055690;28;20025;-36
2021/12/24 10:10:29;;;;;;;4.95;3.22;;;;;;;;;;5055850;28;20029;-36
2021/12/24 10:12:55;;;;;;;6.32;3.47;;;;;;;;;;5055905;28;20017;-36
2021/12/24 10:15:21;;;;;;;5.47;3.30;;;;;;;;;;5054044;28;20178;-37
2021/12/24 10:17:47;;;;;;;3.60;3.10;;;;;;;;;;5053768;28;20115;-36
2021/12/24 10:20:16;;;;;;;4.82;3.30;;;;;;;;;;5031731;28;20280;-39
2021/12/24 10:22:47;;;;;;;5.20;3.20;;;;;;;;;;5033915;28;20033;-37
2021/12/24 10:25:13;;;;;;;5.38;3.45;;;;;;;;;;5034370;28;20030;-38
2021/12/24 10:27:41;;;;;;;4.65;3.60;;;;;;;;;;5034099;28;20111;-39
2021/12/24 10:30:27;;;;;;;3.88;3.03;;;;;;;;;;5033877;28;20053;-39
2021/12/24 10:32:55;;;;;;;4.95;3.17;;;;;;;;;;5034169;28;20026;-39
2021/12/24 10:35:29;;;;;;;4.75;2.88;;;;;;;;;;5033226;28;20501;-40
2021/12/24 10:38:19;;;;;;;5.70;3.40;;;;;;;;;;5033786;28;20510;-39
2021/12/24 10:41:05;;;;;;;4.35;3.15;;;;;;;;;;5033720;28;20120;-39
2021/12/24 10:43:36;;;;;;;4.93;3.03;;;;;;;;;;5033732;28;20029;-40
2021/12/24 10:46:13;;;;;;;6.97;3.35;;;;;;;;;;5033986;28;20028;-40
2021/12/24 10:48:47;;;;;;;3.75;2.92;;;;;;;;;;5033215;28;20057;-40
2021/12/24 10:51:21;;;;;;;4.78;3.10;;;;;;;;;;5033331;28;20033;-39
2021/12/24 10:54:13;;;;;;;6.25;3.38;;;;;;;;;;5033439;28;20034;-42
2021/12/24 10:56:38;;;;;;;6.63;3.20;;;;;;;;;;5029621;28;20140;-40
2021/12/24 10:59:05;;;;;;;4.07;3.13;;;;;;;;;;5033501;28;20171;-39
2021/12/24 11:01:31;;;;;;;3.47;2.70;;;;;;;;;;5033652;28;20429;-40
2021/12/24 11:03:56;;;;;;;3.88;2.78;;;;;;;;;;5033110;28;20017;-39
2021/12/24 11:06:29;;;;;;;6.72;3.53;;;;;;;;;;5032264;28;20025;-38
2021/12/24 11:08:55;;;;;;;4.35;3.13;;;;;;;;;;5033701;28;20123;-39
2021/12/24 11:11:21;;;;;;;5.57;3.00;;;;;;;;;;5033558;28;20049;-39
2021/12/24 11:13:48;;;;;;;3.42;3.13;;;;;;;;;;5032809;28;20397;-38
2021/12/24 11:16:22;;;;;;;5.72;3.75;;;;;;;;;;5033260;28;20742;-39
2021/12/24 11:19:00;;;;;;;5.80;2.88;;;;;;;;;;5033117;28;20404;-40
2021/12/24 11:21:28;;;;;;;5.70;3.40;;;;;;;;;;5032853;28;20385;-39
2021/12/24 11:23:54;;;;;;;4.35;3.30;;;;;;;;;;5032995;28;20044;-40
2021/12/24 11:26:27;;;;;;;5.40;3.38;;;;;;;;;;5033476;28;20524;-41
2021/12/24 11:28:53;;;;;;;5.47;3.10;;;;;;;;;;5032564;28;20037;-39
2021/12/24 11:31:30;;;;;;;3.58;2.80;;;;;;;;;;5032990;28;20082;-39
2021/12/24 11:33:58;;;;;;;3.53;2.90;;;;;;;;;;5032748;28;20033;-40
2021/12/24 11:36:26;;;;;;;8.90;3.40;;;;;;;;;;5032261;28;20057;-40
2021/12/24 11:39:01;;;;;;;7.05;3.30;;;;;;;;;;5032637;28;20041;-39
2021/12/24 11:41:30;;;;;;;6.57;3.13;;;;;;;;;;5032569;28;20096;-39
2021/12/24 11:43:57;;;;;;;3.37;2.77;;;;;;;;;;5032383;28;20052;-39
2021/12/24 11:46:25;;;;;;;4.80;2.88;;;;;;;;;;5032545;28;20037;-39
2021/12/24 11:48:53;;;;;;;5.85;3.40;;;;;;;;;;5032076;28;20072;-39
2021/12/24 11:51:22;;;;;;;5.03;3.53;;;;;;;;;;5032109;28;20390;-39
2021/12/24 11:53:51;;;;;;;4.40;3.05;;;;;;;;;;5032499;28;20059;-38
2021/12/24 11:56:19;;;;;;;3.75;2.90;;;;;;;;;;5032317;28;20038;-39
2021/12/24 11:58:47;;;;;;;3.20;2.72;;;;;;;;;;5031975;28;20030;-38
2021/12/24 12:01:16;;;;;;;4.60;3.13;;;;;;;;;;5031337;28;20026;-39
2021/12/24 12:03:52;;;;;;;6.25;3.38;;;;;;;;;;5031809;28;20508;-37
2021/12/24 12:06:20;;;;;;;3.92;2.92;;;;;;;;;;5032006;28;20071;-39
2021/12/24 12:08:48;;;;;;;5.82;3.50;;;;;;;;;;5032157;28;20034;-38
2021/12/24 12:11:13;;;;;;;5.78;3.10;;;;;;;;;;5032058;28;20112;-38
2021/12/24 12:13:44;;;;;;;4.03;3.03;;;;;;;;;;5031320;28;20575;-40
2021/12/24 12:16:13;;;;;;;4.20;3.08;;;;;;;;;;5031614;28;20116;-40
2021/12/24 12:18:45;;;;;;;3.00;2.70;;;;;;;;;;5031182;28;20416;-37
2021/12/24 12:21:14;;;;;;;4.57;2.80;;;;;;;;;;5031152;28;20382;-39
2021/12/24 12:26:52;;;;;;;3.10;2.80;;;;;;;;;;5031390;28;20037;-37
2021/12/24 12:29:26;;;;;;;4.07;2.97;;;;;;;;;;5031576;28;20389;-37
2021/12/24 12:32:17;;;;;;;3.47;2.72;;;;;;;;;;5031395;28;20389;-38
2021/12/24 12:34:43;;;;;;;4.43;2.63;;;;;;;;;;4994674;28;20371;-38
2021/12/24 12:37:21;;;;;;;3.45;2.80;;;;;;;;;;5032984;28;20035;-37
2021/12/24 12:39:53;;;;;;;5.13;3.05;;;;;;;;;;5032732;28;20506;-37
2021/12/24 12:42:19;;;;;;;7.70;3.20;;;;;;;;;;5031936;28;20040;-37
2021/12/24 12:44:51;;;;;;;3.38;2.75;;;;;;;;;;5033022;28;20030;-38
2021/12/24 12:47:22;;;;;;;4.18;2.80;;;;;;;;;;5032796;28;20083;-38
2021/12/24 12:49:54;;;;;;;5.75;3.65;;;;;;;;;;5032272;28;20030;-37
2021/12/24 12:52:31;;;;;;;5.53;3.22;;;;;;;;;;5033080;28;20101;-37
2021/12/24 12:54:58;;;;;;;3.85;3.45;;;;;;;;;;5032860;28;20029;-37
2021/12/24 12:57:35;;;;;;;3.28;2.70;;;;;;;;;;5032135;28;20481;-37
2021/12/24 13:00:19;;;;;;;4.75;2.80;;;;;;;;;;5032611;28;20036;-38
2021/12/24 13:02:56;;;;;;;5.88;2.78;;;;;;;;;;5032417;28;20037;-38
2021/12/24 13:05:24;;;;;;;4.40;3.00;;;;;;;;;;5031815;28;20032;-38
2021/12/24 13:07:50;;;;;;;3.88;2.95;;;;;;;;;;5032600;28;20025;-38
2021/12/24 13:10:20;;;;;;;5.90;2.78;;;;;;;;;;5032567;28;20028;-37
2021/12/24 13:12:46;;;;;;;5.03;2.90;;;;;;;;;;5032067;28;20021;-37
2021/12/24 13:15:16;;;;;;;4.10;2.67;;;;;;;;;;5032240;28;20049;-37
2021/12/24 13:17:46;;;;;;;3.67;3.15;;;;;;;;;;5032198;28;20034;-37
2021/12/24 13:20:17;;;;;;;3.85;3.13;;;;;;;;;;5031791;28;20033;-37
2021/12/24 13:22:43;;;;;;;4.47;3.20;;;;;;;;;;5032488;28;20036;-38
2021/12/24 13:25:11;;;;;;;6.43;3.25;;;;;;;;;;5032419;28;20100;-38
2021/12/24 13:27:41;;;;;;;7.07;3.53;;;;;;;;;;5032288;28;20520;-38
2021/12/24 13:30:17;;;;;;;3.60;3.10;;;;;;;;;;5032206;28;20079;-37
2021/12/24 13:32:53;;;;;;;4.72;3.00;;;;;;;;;;5032174;28;20389;-38
2021/12/24 13:35:22;;;;;;;4.38;3.30;;;;;;;;;;5031824;28;20052;-38
2021/12/24 13:37:48;;;;;;;3.88;2.95;;;;;;;;;;5031405;28;20108;-36
2021/12/24 13:40:20;;;;;;;4.57;3.00;;;;;;;;;;5032271;28;20105;-37
2021/12/24 13:42:53;;;;;;;5.13;3.78;;;;;;;;;;5032082;28;20083;-37
2021/12/24 13:45:21;;;;;;;4.72;3.30;;;;;;;;;;5032299;28;20437;-37
2021/12/24 13:48:01;;;;;;;4.68;3.03;;;;;;;;;;5031926;28;20557;-36
2021/12/24 13:56:04;;;;;;;4.65;3.03;;;;;;;;;;5031973;28;20052;-38
2021/12/24 13:58:30;;;;;;;4.45;3.28;;;;;;;;;;5031982;28;20061;-38
2021/12/24 14:01:00;;;;;;;4.65;3.33;;;;;;;;;;5032047;28;20071;-37
2021/12/24 14:03:33;;;;;;;4.70;3.38;;;;;;;;;;5031640;28;20028;-38
2021/12/24 14:06:04;;;;;;;4.55;3.13;;;;;;;;;;5031696;28;20083;-38
2021/12/24 14:08:37;;;;;;;4.55;2.90;;;;;;;;;;5032187;28;20044;-38
2021/12/24 14:11:05;;;;;;;6.88;3.15;;;;;;;;;;5031619;28;20021;-37
2021/12/24 14:13:36;;;;;;;4.72;2.88;;;;;;;;;;5032202;28;20448;-35
2021/12/24 14:16:12;;;;;;;4.07;3.22;;;;;;;;;;5032004;28;20030;-37
2021/12/24 14:18:56;;;;;;;6.45;2.92;;;;;;;;;;5031592;28;20017;-36
2021/12/24 14:24:14;;;;;;;5.00;2.83;;;;;;;;;;5035107;28;20034;-37
2021/12/24 14:26:42;;;;;;;4.38;2.58;;;;;;;;;;5035870;28;20033;-36
2021/12/24 14:29:11;;;;;;;5.25;2.90;;;;;;;;;;5035822;28;20060;-36
2021/12/24 14:32:10;;;;;;;5.95;3.40;;;;;;;;;;5035860;28;20025;-37
2021/12/24 14:34:45;;;;;;;4.32;3.22;;;;;;;;;;5019966;28;20414;-36
2021/12/24 14:37:27;;;;;;;3.97;2.70;;;;;;;;;;5035898;28;20053;-36
2021/12/24 14:39:59;;;;;;;4.47;2.83;;;;;;;;;;5035692;28;20445;-35
2021/12/24 14:42:47;;;;;;;4.63;3.00;;;;;;;;;;5035754;28;20116;-36
2021/12/24 14:45:49;;;;;;;3.45;2.80;;;;;;;;;;5035870;28;20025;-37
2021/12/24 14:48:25;;;;;;;4.28;2.70;;;;;;;;;;4954589;28;20408;-36
2021/12/24 14:50:53;;;;;;;5.28;2.83;;;;;;;;;;5024347;28;20045;-37
2021/12/24 14:53:21;;;;;;;7.85;2.95;;;;;;;;;;5035498;28;20079;-37
2021/12/24 14:56:02;;;;;;;4.60;3.10;;;;;;;;;;5035144;28;20049;-36
2021/12/24 14:58:32;;;;;;;4.32;2.88;;;;;;;;;;5034823;28;20037;-37
2021/12/24 15:01:00;;;;;;;3.67;2.80;;;;;;;;;;5034802;28;20036;-37
2021/12/24 15:03:33;;;;;;;4.88;3.00;;;;;;;;;;5034784;28;20025;-37
2021/12/24 15:05:59;;;;;;;5.03;2.83;;;;;;;;;;5034367;28;20099;-36
2021/12/24 15:08:28;;;;;;;4.38;3.00;;;;;;;;;;5035098;28;20049;-36
2021/12/24 15:11:18;;;;;;;6.68;2.97;;;;;;;;;;5034382;28;20040;-36
2021/12/24 15:13:47;;;;;;;3.47;2.70;;;;;;;;;;5034680;28;20124;-37
2021/12/24 15:16:16;;;;;;;4.72;3.10;;;;;;;;;;5034726;28;20112;-36
2021/12/24 15:18:50;;;;;;;4.57;2.72;;;;;;;;;;5033890;28;20120;-37
2021/12/24 15:21:18;;;;;;;4.63;2.90;;;;;;;;;;5034544;28;20073;-37
2021/12/24 15:23:45;;;;;;;3.55;2.85;;;;;;;;;;5034434;28;20053;-35
2021/12/24 15:26:11;;;;;;;3.78;2.90;;;;;;;;;;5032912;28;20029;-37
2021/12/24 15:28:46;;;;;;;3.15;2.80;;;;;;;;;;5034433;28;20048;-37
2021/12/24 15:31:14;;;;;;;4.18;2.88;;;;;;;;;;5034157;28;20025;-38
2021/12/24 15:33:39;;;;;;;4.05;3.00;;;;;;;;;;5033924;28;20109;-38
2021/12/24 15:36:07;;;;;;;5.05;3.30;;;;;;;;;;5032415;28;20441;-36
2021/12/24 15:38:33;;;;;;;3.70;2.70;;;;;;;;;;5033499;28;20033;-38
2021/12/24 15:40:59;;;;;;;2.70;2.50;;;;;;;;;;5033560;28;20079;-39
2021/12/24 15:43:25;;;;;;;3.72;2.95;;;;;;;;;;5032802;28;20017;-38
2021/12/24 15:45:53;;;;;;;4.22;3.17;;;;;;;;;;5033917;28;20030;-37
2021/12/24 15:48:19;;;;;;;5.03;3.00;;;;;;;;;;5033854;28;20433;-39
2021/12/24 15:50:45;;;;;;;4.72;2.80;;;;;;;;;;5033765;28;20026;-37
2021/12/24 15:53:10;;;;;;;4.22;2.67;;;;;;;;;;5033822;28;20531;-38
2021/12/24 15:55:37;;;;;;;6.78;3.08;;;;;;;;;;5033451;28;20027;-39
2021/12/24 15:58:05;;;;;;;4.55;2.90;;;;;;;;;;5033772;28;20036;-38
2021/12/24 16:00:33;;;;;;;4.07;2.78;;;;;;;;;;5033027;28;20453;-36
2021/12/24 16:02:59;;;;;;;3.92;2.97;;;;;;;;;;5033604;28;20018;-36
2021/12/24 16:05:25;;;;;;;3.85;3.33;;;;;;;;;;5033732;28;20029;-38
2021/12/24 16:07:51;;;;;;;4.80;3.13;;;;;;;;;;5033792;28;20052;-36
2021/12/24 16:10:17;;;;;;;4.78;3.50;;;;;;;;;;5033582;28;20482;-36
2021/12/24 16:12:42;;;;;;;4.90;3.53;;;;;;;;;;5033684;28;20029;-36
2021/12/24 16:15:11;;;;;;;5.95;4.25;;;;;;;;;;5031507;28;20117;-37
2021/12/24 16:17:37;;;;;;;6.85;4.22;;;;;;;;;;5032534;28;20113;-36
2021/12/24 16:20:04;;;;;;;5.75;3.60;;;;;;;;;;5032381;28;20031;-36
2021/12/24 16:22:30;;;;;;;7.05;3.70;;;;;;;;;;5033170;28;20038;-36
2021/12/24 16:24:56;;;;;;;6.00;3.70;;;;;;;;;;5033539;28;20079;-37
2021/12/24 16:27:21;;;;;;;5.07;3.90;;;;;;;;;;5033512;28;20411;-36
2021/12/24 16:29:50;;;;;;;6.80;4.15;;;;;;;;;;5033388;28;20037;-36